Time;durP1;ratioP1;P1;durP2;ratioP2;P2;SDS_P1;SDS_P2;PMS_P1;PMS_P2;Temp;Humidity;BMP_temperature;BMP_pressure;BME280_temperature;BME280_humidity;BME280_pressure;Samples;Min_cycle;Max_cycle;Signal;HPM_P1;HPM_P2
2022/04/07 00:00:29;;;;;;;25.17;19.13;;;24.80;93.30;;;;;;4187297;28;20041;-69
2022/04/07 00:02:34;;;;;;;28.60;19.38;;;24.70;93.80;;;;;;4175713;28;20045;-69
2022/04/07 00:04:40;;;;;;;24.20;20.60;;;24.70;93.60;;;;;;4196007;28;20094;-68
2022/04/07 00:06:46;;;;;;;24.58;18.38;;;24.90;93.50;;;;;;4194894;28;20049;-69
2022/04/07 00:08:51;;;;;;;26.40;17.67;;;25.00;93.30;;;;;;4194320;28;20139;-69
2022/04/07 00:10:58;;;;;;;22.42;16.13;;;25.10;93.20;;;;;;4190950;28;20041;-70
2022/04/07 00:13:03;;;;;;;25.42;17.08;;;25.10;93.10;;;;;;4192819;28;20146;-67
2022/04/07 00:15:10;;;;;;;21.65;14.75;;;25.20;93.10;;;;;;4203865;28;20701;-70
2022/04/07 00:17:15;;;;;;;23.70;15.90;;;25.10;93.30;;;;;;4212683;28;20082;-71
2022/04/07 00:19:22;;;;;;;26.95;16.17;;;25.00;93.40;;;;;;4209082;28;20386;-70
2022/04/07 00:21:36;;;;;;;25.45;16.85;;;25.10;93.40;;;;;;4206473;28;20423;-71
2022/04/07 00:23:41;;;;;;;26.40;16.45;;;25.20;93.50;;;;;;4211837;28;20562;-71
2022/04/07 00:25:46;;;;;;;25.70;16.33;;;25.20;93.00;;;;;;4211794;28;20048;-71
2022/04/07 00:27:51;;;;;;;30.65;16.15;;;25.20;92.90;;;;;;4212153;28;20514;-72
2022/04/07 00:29:57;;;;;;;23.83;14.55;;;25.20;92.60;;;;;;4218901;28;20409;-71
2022/04/07 00:32:05;;;;;;;25.05;15.50;;;25.40;92.40;;;;;;4226967;28;20047;-71
2022/04/07 00:34:12;;;;;;;24.77;15.07;;;25.30;92.30;;;;;;4202928;28;20477;-72
2022/04/07 00:36:18;;;;;;;25.08;15.95;;;25.30;92.20;;;;;;4227524;28;20075;-72
2022/04/07 00:38:23;;;;;;;30.25;16.95;;;25.40;92.10;;;;;;4226895;28;20074;-69
2022/04/07 00:40:29;;;;;;;39.28;24.05;;;25.30;92.40;;;;;;4220074;28;20124;-72
2022/04/07 00:42:51;;;;;;;59.88;34.95;;;25.30;92.50;;;;;;4212179;28;20083;-71
2022/04/07 00:44:56;;;;;;;46.50;29.63;;;25.20;92.70;;;;;;4213490;28;20056;-71
2022/04/07 00:47:00;;;;;;;35.28;21.17;;;25.10;92.50;;;;;;4209381;28;20109;-71
2022/04/07 00:49:07;;;;;;;34.17;19.17;;;24.80;92.50;;;;;;4210823;28;20098;-71
2022/04/07 00:51:13;;;;;;;29.55;16.52;;;24.80;92.40;;;;;;4210269;28;20043;-72
2022/04/07 00:53:18;;;;;;;22.65;15.57;;;24.80;92.00;;;;;;4212505;28;20036;-71
2022/04/07 00:55:25;;;;;;;22.65;13.85;;;24.80;91.70;;;;;;4211835;28;20040;-71
2022/04/07 00:57:30;;;;;;;24.95;14.32;;;24.90;91.40;;;;;;4212178;28;20079;-72
2022/04/07 00:59:36;;;;;;;23.33;14.75;;;25.10;90.80;;;;;;4158715;28;20132;-71
2022/04/07 01:01:41;;;;;;;26.90;14.55;;;25.20;90.60;;;;;;4220306;28;20457;-68
2022/04/07 01:03:47;;;;;;;21.63;13.32;;;25.20;90.60;;;;;;4224573;28;20055;-73
2022/04/07 01:05:51;;;;;;;21.67;13.57;;;25.00;89.40;;;;;;4211027;28;20093;-72
2022/04/07 01:07:56;;;;;;;21.08;12.57;;;24.90;88.60;;;;;;4213119;28;20891;-67
2022/04/07 01:10:01;;;;;;;19.08;13.52;;;25.00;87.00;;;;;;4208828;28;20059;-72
2022/04/07 01:12:10;;;;;;;19.73;12.50;;;25.10;86.70;;;;;;4192166;28;20045;-72
2022/04/07 01:14:17;;;;;;;22.80;12.88;;;25.10;86.60;;;;;;4222192;28;20533;-71
2022/04/07 01:16:26;;;;;;;20.65;13.63;;;25.30;86.60;;;;;;4225661;28;20044;-72
2022/04/07 01:18:36;;;;;;;21.48;14.23;;;25.40;86.10;;;;;;4226578;28;20090;-71
2022/04/07 01:20:42;;;;;;;20.50;13.60;;;25.50;85.20;;;;;;4226655;28;20685;-71
2022/04/07 01:22:48;;;;;;;18.98;13.70;;;25.50;84.40;;;;;;4227781;28;20657;-71
2022/04/07 01:24:57;;;;;;;19.25;13.70;;;25.40;85.30;;;;;;4220972;28;20043;-72
2022/04/07 01:27:04;;;;;;;18.70;13.98;;;25.50;84.70;;;;;;4227032;28;20073;-71
2022/04/07 01:29:13;;;;;;;19.23;14.48;;;25.40;85.40;;;;;;4226595;28;20027;-71
2022/04/07 01:31:19;;;;;;;17.80;14.07;;;25.50;86.00;;;;;;4226627;28;20040;-71
2022/04/07 01:33:24;;;;;;;21.73;14.85;;;25.50;85.70;;;;;;4212442;28;20062;-72
2022/04/07 01:35:31;;;;;;;24.70;15.38;;;25.70;85.90;;;;;;4225051;28;20597;-72
2022/04/07 01:37:36;;;;;;;27.95;15.95;;;25.80;86.30;;;;;;4213041;28;20185;-71
2022/04/07 01:39:42;;;;;;;25.73;15.70;;;25.90;85.90;;;;;;4226353;28;20054;-71
2022/04/07 01:41:49;;;;;;;24.05;15.32;;;26.10;85.70;;;;;;4224937;28;20083;-71
2022/04/07 01:43:56;;;;;;;22.58;14.90;;;26.10;85.20;;;;;;4218021;28;20697;-71
2022/04/07 01:46:00;;;;;;;23.95;15.13;;;26.20;85.30;;;;;;4210334;28;20048;-71
2022/04/07 01:48:07;;;;;;;20.73;15.30;;;26.30;85.00;;;;;;4211036;28;20472;-71
2022/04/07 01:50:11;;;;;;;20.45;15.57;;;26.20;84.50;;;;;;4213952;28;20043;-71
2022/04/07 01:52:17;;;;;;;20.45;15.30;;;26.30;84.80;;;;;;4209736;28;20059;-72
2022/04/07 01:54:22;;;;;;;23.25;15.45;;;26.40;85.00;;;;;;4216533;28;20821;-71
2022/04/07 01:56:27;;;;;;;24.38;16.23;;;26.60;85.30;;;;;;4211709;28;20043;-72
2022/04/07 01:58:32;;;;;;;27.55;15.20;;;26.50;85.10;;;;;;4213118;28;20105;-71
2022/04/07 02:00:40;;;;;;;24.85;16.52;;;26.40;83.30;;;;;;4211737;28;20064;-71
2022/04/07 02:02:45;;;;;;;21.10;15.60;;;26.50;84.30;;;;;;4210622;28;20044;-72
2022/04/07 02:04:59;;;;;;;25.60;17.08;;;26.60;84.70;;;;;;4211607;28;20044;-72
2022/04/07 02:07:04;;;;;;;26.98;16.48;;;26.60;84.60;;;;;;4211269;28;20139;-72
2022/04/07 02:09:11;;;;;;;28.33;16.40;;;26.70;84.10;;;;;;4208613;28;20097;-72
2022/04/07 02:11:18;;;;;;;27.17;15.55;;;26.80;83.80;;;;;;4208723;28;20042;-72
2022/04/07 02:13:22;;;;;;;19.88;14.60;;;26.90;83.70;;;;;;4210567;28;20902;-72
2022/04/07 02:15:31;;;;;;;23.15;15.00;;;26.90;83.50;;;;;;4209939;28;20049;-72
2022/04/07 02:17:39;;;;;;;23.52;15.75;;;26.90;83.10;;;;;;4212123;28;20036;-72
2022/04/07 02:19:45;;;;;;;22.35;15.52;;;27.00;82.70;;;;;;4208632;28;20055;-72
2022/04/07 02:21:51;;;;;;;22.63;15.27;;;26.90;82.70;;;;;;4208455;28;20036;-72
2022/04/07 02:23:59;;;;;;;23.58;15.63;;;27.00;83.20;;;;;;4216273;28;20708;-72
2022/04/07 02:26:08;;;;;;;25.63;16.27;;;27.10;82.70;;;;;;4223528;28;20053;-72
2022/04/07 02:28:15;;;;;;;20.90;15.57;;;27.10;82.10;;;;;;4224243;28;20081;-72
2022/04/07 02:30:21;;;;;;;22.52;16.42;;;27.20;82.50;;;;;;4225635;28;20031;-73
2022/04/07 02:32:28;;;;;;;22.45;17.52;;;27.00;81.60;;;;;;4211894;28;20113;-72
2022/04/07 02:34:35;;;;;;;19.27;15.60;;;27.10;82.30;;;;;;4228395;28;20036;-71
2022/04/07 02:36:42;;;;;;;22.42;15.80;;;27.20;82.10;;;;;;4230991;28;20048;-72
2022/04/07 02:38:47;;;;;;;28.27;16.65;;;27.30;82.10;;;;;;4229677;28;20039;-71
2022/04/07 02:40:51;;;;;;;25.90;16.58;;;27.40;81.30;;;;;;4223266;28;20435;-72
2022/04/07 02:42:58;;;;;;;21.77;16.20;;;27.50;81.30;;;;;;4230730;28;20050;-71
2022/04/07 02:45:03;;;;;;;24.48;16.15;;;27.60;81.70;;;;;;4216577;28;20053;-71
2022/04/07 02:47:09;;;;;;;26.15;16.08;;;27.60;81.30;;;;;;4231013;28;20075;-72
2022/04/07 02:49:17;;;;;;;26.88;16.50;;;27.70;82.20;;;;;;4228742;28;20054;-72
2022/04/07 02:51:24;;;;;;;23.77;16.63;;;27.70;81.70;;;;;;4227378;28;20050;-72
2022/04/07 02:53:31;;;;;;;21.88;16.73;;;27.60;81.10;;;;;;4178631;28;20065;-72
2022/04/07 02:55:37;;;;;;;23.50;17.13;;;27.60;81.00;;;;;;4215100;28;20050;-72
2022/04/07 02:57:42;;;;;;;24.60;17.92;;;27.60;80.80;;;;;;4230901;28;20067;-72
2022/04/07 02:59:49;;;;;;;27.23;17.90;;;27.70;80.20;;;;;;4227785;28;20508;-72
2022/04/07 03:01:59;;;;;;;24.52;17.92;;;27.70;80.10;;;;;;4220218;28;20074;-72
2022/04/07 03:04:04;;;;;;;23.35;16.52;;;27.80;80.20;;;;;;4217778;28;20470;-71
2022/04/07 03:06:08;;;;;;;24.25;18.73;;;27.80;80.60;;;;;;4230234;28;20527;-72
2022/04/07 03:08:16;;;;;;;26.63;18.13;;;27.90;81.50;;;;;;4224072;27;20047;-71
2022/04/07 03:10:20;;;;;;;24.98;17.83;;;28.00;81.10;;;;;;4219840;28;20035;-72
2022/04/07 03:12:25;;;;;;;23.90;18.85;;;28.10;80.70;;;;;;4214252;28;20040;-72
2022/04/07 03:14:34;;;;;;;23.08;19.23;;;28.10;79.60;;;;;;4213547;28;20101;-72
2022/04/07 03:16:39;;;;;;;28.42;20.13;;;28.10;79.20;;;;;;4225794;28;20093;-71
2022/04/07 03:18:44;;;;;;;27.50;18.73;;;28.10;78.90;;;;;;4231179;28;20048;-73
2022/04/07 03:20:50;;;;;;;25.08;18.63;;;28.10;78.30;;;;;;4221181;28;20093;-72
2022/04/07 03:22:56;;;;;;;28.02;18.45;;;28.10;78.70;;;;;;4216329;28;20071;-71
2022/04/07 03:25:03;;;;;;;30.10;19.17;;;28.20;78.20;;;;;;4178695;28;20067;-72
2022/04/07 03:27:11;;;;;;;30.10;20.08;;;28.20;77.90;;;;;;4212321;28;20040;-70
2022/04/07 03:29:19;;;;;;;30.05;20.50;;;28.20;77.30;;;;;;4225811;28;20063;-71
2022/04/07 03:31:26;;;;;;;26.63;20.20;;;28.10;77.40;;;;;;4189854;28;20051;-73
2022/04/07 03:33:31;;;;;;;33.95;19.63;;;28.20;76.40;;;;;;4214846;28;20059;-72
2022/04/07 03:35:39;;;;;;;26.38;20.17;;;28.30;75.30;;;;;;4211999;28;20043;-72
2022/04/07 03:37:44;;;;;;;27.98;21.48;;;28.20;75.90;;;;;;4205768;28;20105;-71
2022/04/07 03:39:49;;;;;;;33.25;20.73;;;28.30;75.70;;;;;;4206712;28;20052;-72
2022/04/07 03:41:54;;;;;;;25.88;19.83;;;28.30;74.90;;;;;;4210915;28;20059;-72
2022/04/07 03:44:03;;;;;;;30.70;21.50;;;28.40;75.80;;;;;;4210843;28;20682;-71
2022/04/07 03:46:10;;;;;;;24.67;20.10;;;28.40;75.20;;;;;;4211595;28;20114;-72
2022/04/07 03:48:15;;;;;;;27.17;20.40;;;28.50;75.20;;;;;;4212093;28;20051;-71
2022/04/07 03:50:21;;;;;;;29.75;21.23;;;28.40;74.70;;;;;;4211763;28;20048;-70
2022/04/07 03:52:28;;;;;;;24.38;20.48;;;28.50;75.20;;;;;;4212325;28;20047;-69
2022/04/07 03:54:32;;;;;;;26.25;20.27;;;28.50;74.50;;;;;;4212789;28;20079;-71
2022/04/07 03:56:40;;;;;;;27.55;20.35;;;28.60;74.90;;;;;;4211243;28;20051;-72
2022/04/07 03:58:45;;;;;;;24.58;20.70;;;28.50;74.80;;;;;;4209340;28;20764;-71
2022/04/07 04:00:49;;;;;;;30.67;20.67;;;28.50;74.20;;;;;;4211223;28;20047;-72
2022/04/07 04:02:54;;;;;;;28.65;20.92;;;28.50;74.30;;;;;;4209749;28;20070;-69
2022/04/07 04:05:01;;;;;;;29.00;19.20;;;28.60;74.50;;;;;;4210017;28;20044;-71
2022/04/07 04:07:06;;;;;;;30.40;21.33;;;28.60;74.80;;;;;;4209182;28;20072;-72
2022/04/07 04:09:12;;;;;;;27.10;21.77;;;28.70;74.60;;;;;;4191914;28;20048;-70
2022/04/07 04:11:19;;;;;;;28.83;20.02;;;28.80;74.60;;;;;;4210731;28;20043;-71
2022/04/07 04:13:26;;;;;;;28.83;20.23;;;28.70;74.90;;;;;;4212751;28;20072;-70
2022/04/07 04:15:30;;;;;;;28.50;21.00;;;28.70;74.60;;;;;;4210186;28;20066;-70
2022/04/07 04:17:35;;;;;;;32.90;20.65;;;28.80;74.50;;;;;;4210730;28;20058;-70
2022/04/07 04:19:40;;;;;;;25.83;21.20;;;29.00;75.00;;;;;;4210165;28;20054;-70
2022/04/07 04:21:45;;;;;;;27.58;21.65;;;28.90;73.40;;;;;;4210098;28;20049;-70
2022/04/07 04:23:52;;;;;;;27.77;20.60;;;28.90;74.00;;;;;;4211782;28;20514;-69
2022/04/07 04:25:57;;;;;;;24.85;20.55;;;28.90;72.60;;;;;;4211729;28;20048;-70
2022/04/07 04:28:05;;;;;;;25.33;20.80;;;29.00;72.70;;;;;;4211472;28;20442;-70
2022/04/07 04:30:13;;;;;;;27.33;21.52;;;29.10;72.50;;;;;;4211448;28;20612;-70
2022/04/07 04:32:18;;;;;;;31.90;22.35;;;29.10;72.60;;;;;;4210669;28;20040;-70
2022/04/07 04:34:25;;;;;;;31.58;20.73;;;29.20;72.70;;;;;;4210802;28;20890;-70
2022/04/07 04:36:34;;;;;;;25.65;21.63;;;29.20;72.10;;;;;;4211313;28;20445;-70
2022/04/07 04:38:38;;;;;;;30.17;21.65;;;29.30;71.50;;;;;;4211547;28;20043;-70
2022/04/07 04:40:45;;;;;;;26.48;21.30;;;29.30;72.00;;;;;;4211142;28;20052;-71
2022/04/07 04:42:50;;;;;;;30.83;22.45;;;29.40;71.60;;;;;;4212065;28;20040;-69
2022/04/07 04:44:55;;;;;;;27.00;21.65;;;29.40;71.90;;;;;;4210711;28;20636;-70
2022/04/07 04:47:01;;;;;;;28.13;21.13;;;29.50;71.40;;;;;;4212193;28;20131;-70
2022/04/07 04:49:09;;;;;;;27.05;21.27;;;29.50;70.50;;;;;;4211507;28;20121;-69
2022/04/07 04:51:14;;;;;;;26.27;22.00;;;29.50;71.00;;;;;;4212017;28;20621;-70
2022/04/07 04:53:23;;;;;;;27.73;21.63;;;29.60;71.20;;;;;;4211796;28;20426;-70
2022/04/07 04:55:30;;;;;;;26.67;22.05;;;29.60;71.10;;;;;;4212332;28;20071;-68
2022/04/07 04:57:35;;;;;;;23.92;20.98;;;29.60;70.80;;;;;;4204235;28;20040;-69
2022/04/07 04:59:42;;;;;;;28.60;20.63;;;29.70;70.40;;;;;;4211971;28;20048;-70
2022/04/07 05:01:51;;;;;;;25.83;21.27;;;29.70;69.60;;;;;;4211179;28;20440;-70
2022/04/07 05:03:56;;;;;;;25.40;20.15;;;29.60;70.00;;;;;;4210437;28;20040;-69
2022/04/07 05:06:03;;;;;;;26.98;21.02;;;29.70;71.30;;;;;;4210672;28;20523;-70
2022/04/07 05:08:09;;;;;;;25.67;20.67;;;29.70;70.40;;;;;;4210982;28;20044;-70
2022/04/07 05:10:13;;;;;;;29.40;20.77;;;29.70;70.90;;;;;;4205831;28;20495;-69
2022/04/07 05:12:18;;;;;;;27.05;21.67;;;29.80;69.60;;;;;;4211418;28;20067;-69
2022/04/07 05:14:25;;;;;;;29.80;21.73;;;29.80;70.20;;;;;;4208279;28;20043;-70
2022/04/07 05:16:29;;;;;;;25.40;21.42;;;29.90;70.40;;;;;;4208808;28;20048;-70
2022/04/07 05:18:36;;;;;;;24.38;21.05;;;29.90;69.80;;;;;;4211366;28;20639;-70
2022/04/07 05:20:43;;;;;;;34.70;21.00;;;30.00;69.80;;;;;;4211343;28;20068;-70
2022/04/07 05:22:48;;;;;;;26.80;20.75;;;30.00;69.60;;;;;;4210932;28;20518;-71
2022/04/07 05:24:54;;;;;;;29.05;21.40;;;30.00;69.20;;;;;;4210493;28;20044;-70
2022/04/07 05:27:00;;;;;;;28.80;20.38;;;30.00;68.70;;;;;;4211012;28;20051;-71
2022/04/07 05:29:05;;;;;;;27.83;21.75;;;29.90;68.70;;;;;;4209676;28;20066;-69
2022/04/07 05:31:10;;;;;;;25.27;21.48;;;30.00;70.00;;;;;;4211248;28;20052;-68
2022/04/07 05:33:17;;;;;;;27.75;20.75;;;30.10;70.30;;;;;;4211032;28;20032;-69
2022/04/07 05:35:26;;;;;;;26.80;21.05;;;30.20;70.60;;;;;;4209185;28;20032;-68
2022/04/07 05:37:32;;;;;;;30.38;21.45;;;30.30;69.80;;;;;;4175456;28;20041;-68
2022/04/07 05:39:39;;;;;;;29.42;21.27;;;30.20;70.00;;;;;;4206547;28;20048;-68
2022/04/07 05:41:44;;;;;;;29.40;20.60;;;30.30;70.40;;;;;;4211241;28;20044;-70
2022/04/07 05:43:52;;;;;;;31.17;20.58;;;30.30;70.00;;;;;;4191813;28;20048;-68
2022/04/07 05:45:58;;;;;;;26.23;22.42;;;30.50;70.20;;;;;;4211160;28;20103;-70
2022/04/07 05:48:03;;;;;;;28.80;21.20;;;30.40;69.70;;;;;;4209230;28;20043;-70
2022/04/07 05:50:11;;;;;;;25.42;21.55;;;30.40;70.00;;;;;;4209720;28;20102;-69
2022/04/07 05:52:15;;;;;;;25.15;20.20;;;30.40;69.60;;;;;;4211165;28;20048;-69
2022/04/07 05:54:20;;;;;;;28.52;22.00;;;30.50;70.10;;;;;;4210014;28;20477;-69
2022/04/07 05:56:26;;;;;;;28.60;21.67;;;30.60;70.70;;;;;;4191482;28;20090;-71
2022/04/07 05:58:33;;;;;;;27.13;20.75;;;30.60;70.00;;;;;;4210983;28;20036;-71
2022/04/07 06:00:38;;;;;;;33.13;23.00;;;30.70;69.40;;;;;;4211135;28;20060;-69
2022/04/07 06:02:44;;;;;;;25.02;21.58;;;30.60;68.80;;;;;;4211333;28;20102;-71
2022/04/07 06:04:49;;;;;;;27.90;21.35;;;30.70;69.50;;;;;;4210715;28;20055;-73
2022/04/07 06:06:53;;;;;;;26.52;22.08;;;30.70;69.50;;;;;;4211015;28;20050;-73
2022/04/07 06:08:58;;;;;;;32.50;22.65;;;30.70;69.30;;;;;;4206164;28;20050;-71
2022/04/07 06:11:05;;;;;;;26.50;21.67;;;30.80;69.70;;;;;;4214201;28;20040;-72
2022/04/07 06:13:11;;;;;;;27.75;20.88;;;30.80;69.30;;;;;;4213523;28;20046;-72
2022/04/07 06:15:18;;;;;;;29.98;21.75;;;30.80;69.20;;;;;;4214208;28;20044;-71
2022/04/07 06:17:36;;;;;;;25.85;22.20;;;30.90;69.50;;;;;;4213886;28;20067;-72
2022/04/07 06:19:41;;;;;;;26.70;21.95;;;30.90;69.10;;;;;;4211988;28;20097;-72
2022/04/07 06:21:48;;;;;;;29.63;21.48;;;30.90;69.30;;;;;;4214025;28;20123;-71
2022/04/07 06:23:54;;;;;;;27.48;21.92;;;31.00;69.00;;;;;;4214794;28;20470;-72
2022/04/07 06:25:59;;;;;;;28.73;22.15;;;31.00;68.60;;;;;;4214340;28;20072;-71
2022/04/07 06:28:06;;;;;;;30.17;21.95;;;30.90;68.30;;;;;;4214310;28;20040;-71
2022/04/07 06:30:14;;;;;;;31.63;22.73;;;30.80;68.90;;;;;;4213389;28;20085;-73
2022/04/07 06:32:18;;;;;;;26.00;22.30;;;30.90;69.00;;;;;;4210692;28;20110;-70
2022/04/07 06:34:24;;;;;;;27.40;20.58;;;30.80;68.80;;;;;;4214982;28;20036;-72
2022/04/07 06:36:31;;;;;;;27.15;21.75;;;30.80;69.40;;;;;;4213049;28;20048;-71
2022/04/07 06:38:36;;;;;;;28.73;22.73;;;30.70;68.70;;;;;;4213772;28;20047;-72
2022/04/07 06:40:40;;;;;;;27.63;21.83;;;30.60;69.10;;;;;;4211781;28;20130;-71
2022/04/07 06:42:51;;;;;;;31.20;21.30;;;30.70;68.90;;;;;;4212643;28;20040;-71
2022/04/07 06:44:59;;;;;;;30.10;21.30;;;30.60;68.20;;;;;;4212536;28;20039;-71
2022/04/07 06:47:05;;;;;;;27.98;21.23;;;30.60;68.70;;;;;;4213448;28;20053;-72
2022/04/07 06:49:11;;;;;;;27.05;20.90;;;30.70;69.30;;;;;;4213833;28;20447;-72
2022/04/07 06:51:16;;;;;;;27.23;21.05;;;30.60;68.60;;;;;;4212956;28;20364;-71
2022/04/07 06:53:23;;;;;;;28.35;22.00;;;30.60;68.50;;;;;;4178696;28;20137;-73
2022/04/07 06:55:31;;;;;;;27.13;21.13;;;30.60;69.20;;;;;;4213623;28;20134;-64
2022/04/07 06:58:00;;;;;;;28.65;20.30;;;30.60;69.70;;;;;;4213755;28;20435;-67
2022/04/07 07:00:11;;;;;;;25.73;20.58;;;30.80;69.00;;;;;;4212239;28;20483;-67
2022/04/07 07:02:17;;;;;;;25.85;21.73;;;30.90;68.60;;;;;;4213489;28;20089;-72
2022/04/07 07:04:22;;;;;;;26.50;20.55;;;30.90;67.20;;;;;;4212134;28;20131;-72
2022/04/07 07:06:27;;;;;;;28.83;21.63;;;30.80;68.50;;;;;;4211409;28;20054;-74
2022/04/07 07:08:32;;;;;;;27.15;19.85;;;31.00;68.90;;;;;;4212187;28;20082;-72
2022/04/07 07:10:37;;;;;;;25.08;20.35;;;30.90;68.70;;;;;;4210161;28;20043;-72
2022/04/07 07:12:42;;;;;;;25.52;19.45;;;30.90;70.50;;;;;;4213078;28;20067;-73
2022/04/07 07:14:51;;;;;;;25.08;21.10;;;30.90;68.80;;;;;;4213303;28;20056;-72
2022/04/07 07:16:57;;;;;;;24.30;19.52;;;31.00;68.20;;;;;;4211021;28;20066;-72
2022/04/07 07:19:10;;;;;;;25.42;20.13;;;31.00;67.40;;;;;;4212540;28;20546;-74
2022/04/07 07:21:18;;;;;;;24.70;19.67;;;31.00;67.90;;;;;;4211070;28;20566;-72
2022/04/07 07:23:22;;;;;;;31.63;20.42;;;31.10;67.90;;;;;;4211539;28;20036;-71
2022/04/07 07:25:31;;;;;;;26.52;20.90;;;30.90;67.60;;;;;;4212250;28;20047;-72
2022/04/07 07:27:46;;;;;;;30.92;20.25;;;30.90;66.90;;;;;;4213195;28;20075;-71
2022/04/07 07:29:51;;;;;;;26.10;20.33;;;31.00;68.30;;;;;;4210500;28;20097;-73
2022/04/07 07:31:58;;;;;;;23.50;20.33;;;31.00;68.70;;;;;;4211188;28;20052;-70
2022/04/07 07:34:06;;;;;;;27.27;20.70;;;31.10;68.00;;;;;;4213165;28;20042;-70
2022/04/07 07:36:11;;;;;;;25.38;20.27;;;30.90;67.00;;;;;;4213352;28;20033;-71
2022/04/07 07:38:17;;;;;;;25.13;19.85;;;30.90;67.90;;;;;;4210720;28;20047;-72
2022/04/07 07:40:25;;;;;;;25.88;20.08;;;30.90;67.00;;;;;;4211796;28;20044;-71
2022/04/07 07:42:31;;;;;;;25.65;20.63;;;31.00;67.30;;;;;;4207685;28;20041;-72
2022/04/07 07:44:37;;;;;;;25.70;20.20;;;31.10;66.40;;;;;;4211971;28;20036;-74
2022/04/07 07:46:44;;;;;;;26.27;20.63;;;30.90;66.80;;;;;;4209803;28;20036;-75
2022/04/07 07:48:48;;;;;;;28.63;20.13;;;30.80;66.90;;;;;;4212058;28;20462;-72
2022/04/07 07:50:54;;;;;;;25.27;20.45;;;30.90;67.20;;;;;;4213415;28;20051;-73
2022/04/07 07:53:00;;;;;;;27.02;20.30;;;30.90;68.70;;;;;;4211936;28;20036;-72
2022/04/07 07:55:06;;;;;;;27.60;21.17;;;31.00;68.80;;;;;;4211245;28;20040;-71
2022/04/07 07:57:13;;;;;;;27.77;20.05;;;31.10;68.50;;;;;;4212957;28;20035;-74
2022/04/07 07:59:20;;;;;;;24.60;19.40;;;31.00;68.20;;;;;;4211644;28;20036;-71
2022/04/07 08:01:24;;;;;;;25.42;20.38;;;31.00;68.80;;;;;;4212596;28;20513;-71
2022/04/07 08:03:31;;;;;;;25.95;19.98;;;31.20;69.00;;;;;;4211499;28;20143;-70
2022/04/07 08:05:36;;;;;;;26.02;20.58;;;31.10;68.00;;;;;;4210566;28;20514;-73
2022/04/07 08:07:41;;;;;;;28.45;20.95;;;31.10;69.30;;;;;;4213172;28;20056;-73
2022/04/07 08:09:48;;;;;;;29.40;20.27;;;31.10;69.80;;;;;;4211554;28;20056;-71
2022/04/07 08:11:55;;;;;;;25.88;19.98;;;31.20;69.70;;;;;;4210721;28;20044;-71
2022/04/07 08:14:00;;;;;;;24.70;19.88;;;30.90;68.30;;;;;;4212703;28;20529;-71
2022/04/07 08:16:05;;;;;;;25.52;19.85;;;31.00;69.00;;;;;;4212558;28;20642;-71
2022/04/07 08:18:13;;;;;;;24.27;19.65;;;31.00;68.10;;;;;;4212779;28;20047;-73
2022/04/07 08:20:18;;;;;;;26.60;20.23;;;31.00;68.70;;;;;;4211474;28;20047;-71
2022/04/07 08:22:25;;;;;;;27.58;20.92;;;30.90;68.50;;;;;;4209558;28;20098;-72
2022/04/07 08:24:31;;;;;;;23.58;20.50;;;31.00;68.50;;;;;;4211895;28;20078;-71
2022/04/07 08:26:36;;;;;;;28.38;20.20;;;31.20;68.70;;;;;;4211396;28;20052;-72
2022/04/07 08:28:43;;;;;;;22.85;20.00;;;31.10;68.60;;;;;;4212599;28;20130;-73
2022/04/07 08:30:49;;;;;;;24.20;20.42;;;30.90;68.20;;;;;;4212431;28;20070;-72
2022/04/07 08:32:54;;;;;;;25.95;19.55;;;30.80;67.90;;;;;;4210156;28;20712;-71
2022/04/07 08:35:02;;;;;;;28.98;20.10;;;30.80;68.10;;;;;;4212367;28;20050;-72
2022/04/07 08:37:08;;;;;;;28.77;20.42;;;30.90;68.80;;;;;;4210546;28;20097;-71
2022/04/07 08:39:14;;;;;;;26.80;20.10;;;31.00;69.20;;;;;;4209889;28;20052;-73
2022/04/07 08:41:19;;;;;;;25.90;20.67;;;30.80;69.30;;;;;;4211913;28;20067;-73
2022/04/07 08:43:26;;;;;;;22.50;19.38;;;30.80;68.50;;;;;;4209581;28;21515;-72
2022/04/07 08:45:30;;;;;;;22.50;19.90;;;30.90;68.70;;;;;;4212144;28;20035;-69
2022/04/07 08:47:37;;;;;;;26.65;20.70;;;30.90;68.20;;;;;;4177091;28;20554;-72
2022/04/07 08:49:43;;;;;;;27.20;20.75;;;30.80;68.80;;;;;;4211687;28;20153;-72
2022/04/07 08:51:50;;;;;;;28.08;20.50;;;30.80;70.00;;;;;;4211682;28;20047;-71
2022/04/07 08:53:57;;;;;;;25.35;20.38;;;30.80;68.70;;;;;;4212171;28;20040;-72
2022/04/07 08:56:04;;;;;;;24.35;20.00;;;30.80;69.10;;;;;;4211516;28;20040;-73
2022/04/07 08:58:17;;;;;;;27.98;21.35;;;30.90;69.50;;;;;;4210310;28;20044;-72
2022/04/07 09:00:24;;;;;;;30.17;21.20;;;30.90;68.90;;;;;;4211589;28;20772;-71
2022/04/07 09:02:28;;;;;;;23.85;19.83;;;30.80;69.20;;;;;;4211366;28;20521;-71
2022/04/07 09:04:40;;;;;;;27.02;20.60;;;30.90;69.30;;;;;;4211642;28;20480;-70
2022/04/07 09:06:44;;;;;;;24.75;20.90;;;30.90;68.90;;;;;;4211270;28;20155;-71
2022/04/07 09:08:51;;;;;;;26.90;21.48;;;31.00;68.70;;;;;;4209748;28;20086;-71
2022/04/07 09:10:56;;;;;;;31.48;21.10;;;31.00;67.90;;;;;;4208601;28;20040;-71
2022/04/07 09:13:05;;;;;;;24.02;20.42;;;31.00;69.00;;;;;;4209919;28;20043;-69
2022/04/07 09:15:12;;;;;;;28.92;20.40;;;30.90;67.90;;;;;;4211963;28;20123;-69
2022/04/07 09:17:17;;;;;;;27.38;20.48;;;30.80;67.60;;;;;;4204241;28;20048;-71
2022/04/07 09:19:22;;;;;;;28.30;19.70;;;30.80;67.80;;;;;;4211512;28;20437;-70
2022/04/07 09:21:31;;;;;;;25.27;20.88;;;30.70;67.40;;;;;;4211721;28;20048;-70
2022/04/07 09:23:39;;;;;;;26.00;20.65;;;30.70;68.70;;;;;;4211114;28;20043;-72
2022/04/07 09:25:49;;;;;;;25.13;20.83;;;30.70;67.40;;;;;;4209954;28;20047;-70
2022/04/07 09:28:00;;;;;;;23.33;20.45;;;30.70;67.50;;;;;;4210895;28;20521;-69
2022/04/07 09:30:08;;;;;;;27.67;21.20;;;30.80;67.50;;;;;;4211678;28;20142;-70
2022/04/07 09:32:19;;;;;;;25.50;19.88;;;30.80;68.00;;;;;;4211740;28;20036;-71
2022/04/07 09:34:33;;;;;;;28.27;20.70;;;30.70;68.00;;;;;;4206324;28;20032;-70
2022/04/07 09:36:42;;;;;;;27.90;21.55;;;30.70;68.10;;;;;;4209995;28;20184;-72
2022/04/07 09:38:53;;;;;;;25.33;20.77;;;30.70;68.50;;;;;;4171677;28;20457;-69
2022/04/07 09:41:06;;;;;;;30.17;20.60;;;30.70;68.40;;;;;;4207979;28;20067;-69
2022/04/07 09:43:11;;;;;;;25.55;20.50;;;30.70;68.70;;;;;;4207967;28;20144;-70
2022/04/07 09:45:23;;;;;;;28.65;20.80;;;30.70;68.70;;;;;;4209248;28;20040;-70
2022/04/07 09:47:43;;;;;;;28.30;21.10;;;30.70;68.70;;;;;;4208498;28;20086;-71
2022/04/07 09:49:49;;;;;;;52.95;46.65;;;30.70;69.70;;;;;;4207531;28;20792;-71
2022/04/07 09:51:56;;;;;;;73.13;58.72;;;30.70;69.20;;;;;;4206491;28;20044;-71
2022/04/07 09:54:03;;;;;;;76.88;61.38;;;30.70;68.60;;;;;;4192128;28;20051;-70
2022/04/07 09:56:08;;;;;;;47.55;36.35;;;30.60;68.40;;;;;;4209088;28;20028;-72
2022/04/07 09:58:15;;;;;;;34.63;27.55;;;30.60;68.60;;;;;;4208106;28;20043;-74
2022/04/07 10:00:21;;;;;;;46.30;39.05;;;30.60;69.60;;;;;;4210123;28;20060;-73
2022/04/07 10:02:26;;;;;;;35.85;28.33;;;30.60;69.30;;;;;;4209588;28;20040;-72
2022/04/07 10:04:37;;;;;;;27.48;22.00;;;30.60;69.00;;;;;;4209429;28;20049;-70
2022/04/07 10:06:43;;;;;;;31.95;25.88;;;30.60;68.60;;;;;;4209237;28;20522;-70
2022/04/07 10:08:49;;;;;;;36.95;28.67;;;30.60;69.00;;;;;;4207783;28;20138;-70
2022/04/07 10:10:57;;;;;;;29.35;23.23;;;30.60;69.30;;;;;;4207959;28;20051;-72
2022/04/07 10:13:03;;;;;;;28.65;21.83;;;30.60;68.60;;;;;;4209124;28;20040;-75
2022/04/07 10:15:09;;;;;;;33.13;26.08;;;30.50;69.00;;;;;;4208530;28;20032;-74
2022/04/07 10:17:15;;;;;;;29.90;25.25;;;30.40;70.10;;;;;;4173068;28;20068;-73
2022/04/07 10:19:24;;;;;;;35.15;29.73;;;30.50;70.00;;;;;;4209791;28;20662;-73
2022/04/07 10:21:50;;;;;;;31.90;27.30;;;30.50;69.00;;;;;;4207970;28;20048;-71
2022/04/07 10:24:13;;;;;;;33.25;26.42;;;30.50;70.40;;;;;;4209231;28;20044;-72
2022/04/07 10:26:18;;;;;;;34.45;25.77;;;30.50;70.50;;;;;;4208041;28;20119;-72
2022/04/07 10:28:24;;;;;;;29.23;24.20;;;30.50;70.80;;;;;;4203874;28;20483;-72
2022/04/07 10:30:48;;;;;;;;;;;30.50;70.60;;;;;;4210215;28;20083;-73
2022/04/07 10:32:58;;;;;;;29.83;23.63;;;30.50;70.90;;;;;;4212119;28;19931;-70
2022/04/07 10:35:03;;;;;;;28.77;23.85;;;30.50;70.90;;;;;;4206449;28;20037;-72
2022/04/07 10:37:10;;;;;;;30.40;23.90;;;30.50;71.20;;;;;;4210530;28;20398;-72
2022/04/07 10:39:17;;;;;;;28.83;22.90;;;30.50;72.20;;;;;;4207462;28;20032;-72
2022/04/07 10:41:45;;;;;;;28.70;23.20;;;30.40;72.40;;;;;;4209870;28;20033;-72
2022/04/07 10:44:12;;;;;;;25.83;21.92;;;30.40;72.70;;;;;;4199666;28;20045;-72